Time;durP1;ratioP1;P1;durP2;ratioP2;P2;SDS_P1;SDS_P2;PMS_P1;PMS_P2;Temp;Humidity;BMP_temperature;BMP_pressure;BME280_temperature;BME280_humidity;BME280_pressure;Samples;Min_cycle;Max_cycle;Signal;HPM_P1;HPM_P2
2023/10/31 00:02:22;;;;;;;;;;;;;;;11.72;96.74;99275.88;107575;277;96210;-57
2023/10/31 00:04:57;;;;;;;;;;;;;;;11.72;96.91;99265.10;107506;277;98348;-57
2023/10/31 00:07:34;;;;;;;;;;;;;;;11.72;96.88;99256.94;107534;277;121650;-57
2023/10/31 00:10:11;;;;;;;;;;;;;;;11.72;96.87;99257.73;107468;277;105880;-56
2023/10/31 00:12:45;;;;;;;;;;;;;;;11.73;96.87;99262.42;107523;277;115620;-57
2023/10/31 00:15:21;;;;;;;;;;;;;;;11.71;96.93;99252.38;107457;277;96718;-56
2023/10/31 00:17:58;;;;;;;;;;;;;;;11.69;96.72;99248.18;107553;277;97546;-54
2023/10/31 00:20:33;;;;;;;;;;;;;;;11.65;96.92;99245.86;107449;277;120836;-53
2023/10/31 00:23:06;;;;;;;;;;;;;;;11.59;97.09;99233.52;107497;277;104876;-52
2023/10/31 00:25:42;;;;;;;;;;;;;;;11.58;97.04;99231.64;107495;277;113829;-52
2023/10/31 00:28:17;;;;;;;;;;;;;;;11.54;97.15;99223.84;107483;277;97177;-53
2023/10/31 00:30:55;;;;;;;;;;;;;;;11.52;97.20;99221.23;107505;277;95781;-53
2023/10/31 00:33:30;;;;;;;;;;;;;;;11.51;97.22;99225.46;107461;277;121802;-55
2023/10/31 00:36:07;;;;;;;;;;;;;;;11.48;97.21;99224.58;107467;277;104558;-57
2023/10/31 00:38:43;;;;;;;;;;;;;;;11.48;97.40;99221.63;107494;277;113271;-55
2023/10/31 00:41:19;;;;;;;;;;;;;;;11.46;97.64;99221.80;107492;277;95858;-55
2023/10/31 00:43:56;;;;;;;;;;;;;;;11.47;97.60;99215.55;107472;277;97507;-53
2023/10/31 00:46:33;;;;;;;;;;;;;;;11.49;97.59;99217.41;107493;277;121348;-53
2023/10/31 00:49:13;;;;;;;;;;;;;;;11.50;97.63;99216.79;107520;277;103906;-56
2023/10/31 00:51:55;;;;;;;;;;;;;;;11.45;97.84;99208.47;107438;277;114839;-56
2023/10/31 00:54:31;;;;;;;;;;;;;;;11.47;97.83;99199.17;107476;277;97220;-53
2023/10/31 00:57:06;;;;;;;;;;;;;;;11.49;97.85;99191.40;107484;277;97773;-53
2023/10/31 00:59:39;;;;;;;;;;;;;;;11.48;98.05;99182.65;107488;277;121380;-55
2023/10/31 01:02:15;;;;;;;;;;;;;;;11.51;97.78;99171.17;107505;277;105766;-56
2023/10/31 01:04:52;;;;;;;;;;;;;;;11.54;97.94;99165.13;107504;277;113169;-56
2023/10/31 01:07:28;;;;;;;;;;;;;;;11.56;97.92;99157.30;107499;277;96540;-55
2023/10/31 01:10:04;;;;;;;;;;;;;;;11.52;98.01;99156.96;107505;277;98285;-56
2023/10/31 01:12:42;;;;;;;;;;;;;;;11.51;98.21;99152.91;107494;277;121761;-57
2023/10/31 01:15:15;;;;;;;;;;;;;;;11.53;98.10;99145.69;107498;277;105896;-56
2023/10/31 01:17:51;;;;;;;;;;;;;;;11.54;98.11;99134.69;107500;277;114834;-57
2023/10/31 01:20:26;;;;;;;;;;;;;;;11.53;98.04;99121.13;107436;277;96530;-57
2023/10/31 01:23:02;;;;;;;;;;;;;;;11.54;98.07;99118.45;107530;277;97930;-56
2023/10/31 01:25:38;;;;;;;;;;;;;;;11.57;98.10;99111.52;107536;277;121971;-57
2023/10/31 01:28:14;;;;;;;;;;;;;;;11.63;97.93;99109.70;107523;277;105799;-54
2023/10/31 01:30:46;;;;;;;;;;;;;;;11.62;98.08;99104.54;107484;277;112759;-54
2023/10/31 01:33:20;;;;;;;;;;;;;;;11.64;98.19;99102.69;107536;277;97132;-54
2023/10/31 01:35:57;;;;;;;;;;;;;;;11.66;98.17;99115.73;107452;277;97836;-55
2023/10/31 01:38:34;;;;;;;;;;;;;;;11.62;98.15;99114.07;107487;277;121699;-53
2023/10/31 01:41:12;;;;;;;;;;;;;;;11.63;98.14;99113.14;107538;277;105335;-53
2023/10/31 01:43:48;;;;;;;;;;;;;;;11.60;98.07;99109.94;107524;277;115054;-56
2023/10/31 01:46:24;;;;;;;;;;;;;;;11.58;98.44;99110.54;107471;277;96905;-57
2023/10/31 01:48:59;;;;;;;;;;;;;;;11.63;98.31;99117.10;107492;277;97423;-56
2023/10/31 01:51:35;;;;;;;;;;;;;;;11.63;98.39;99109.07;107447;277;120350;-57
2023/10/31 01:54:15;;;;;;;;;;;;;;;11.67;98.31;99091.95;107504;277;104563;-57
2023/10/31 01:56:53;;;;;;;;;;;;;;;11.67;98.64;99080.88;107490;277;115728;-57
2023/10/31 01:59:29;;;;;;;;;;;;;;;11.69;98.89;99060.80;107509;277;97325;-55
2023/10/31 02:02:06;;;;;;;;;;;;;;;11.74;98.62;99041.61;107507;277;98068;-56
2023/10/31 02:04:45;;;;;;;;;;;;;;;11.73;98.71;99024.89;107496;277;121669;-57
2023/10/31 02:07:22;;;;;;;;;;;;;;;11.74;98.72;99021.69;107525;277;105915;-53
2023/10/31 02:09:55;;;;;;;;;;;;;;;11.73;98.65;99016.02;107522;277;112889;-53
2023/10/31 02:12:39;;;;;;;;;;;;;;;11.72;98.74;99008.38;107495;277;95845;-52
2023/10/31 02:15:12;;;;;;;;;;;;;;;11.71;98.85;98999.53;107463;277;96264;-52
2023/10/31 02:17:47;;;;;;;;;;;;;;;11.73;98.76;98992.27;107517;277;122336;-57
2023/10/31 02:20:22;;;;;;;;;;;;;;;11.75;98.65;98990.98;107493;277;105143;-57
2023/10/31 02:22:58;;;;;;;;;;;;;;;11.77;98.60;98990.15;107454;277;116045;-54
2023/10/31 02:25:37;;;;;;;;;;;;;;;11.77;98.80;98981.66;107450;277;97426;-54
2023/10/31 02:28:14;;;;;;;;;;;;;;;11.80;98.54;98978.67;107513;277;97655;-56
2023/10/31 02:30:53;;;;;;;;;;;;;;;11.82;98.77;98979.85;107471;277;122490;-56
2023/10/31 02:33:31;;;;;;;;;;;;;;;11.88;98.88;98971.81;107472;277;105540;-54
2023/10/31 02:36:04;;;;;;;;;;;;;;;11.94;98.73;98969.96;107501;277;114244;-53
2023/10/31 02:38:43;;;;;;;;;;;;;;;11.97;98.65;98967.73;107488;277;97045;-57
2023/10/31 02:41:17;;;;;;;;;;;;;;;11.98;98.58;98964.12;107491;277;98012;-57
2023/10/31 02:43:55;;;;;;;;;;;;;;;11.99;98.61;98962.58;107468;277;121210;-56
2023/10/31 02:46:40;;;;;;;;;;;;;;;12.01;98.35;98967.71;107459;277;105659;-57
2023/10/31 02:49:22;;;;;;;;;;;;;;;12.06;98.39;98952.40;107067;277;568178;-56
2023/10/31 02:51:57;;;;;;;;;;;;;;;12.04;98.68;98950.48;107424;277;96175;-55
2023/10/31 02:54:30;;;;;;;;;;;;;;;12.03;98.66;98947.95;107513;277;96841;-52
2023/10/31 02:57:06;;;;;;;;;;;;;;;12.08;98.51;98944.90;107457;277;121716;-52
2023/10/31 02:59:41;;;;;;;;;;;;;;;12.12;98.39;98939.79;107494;277;105218;-55
2023/10/31 03:02:23;;;;;;;;;;;;;;;12.15;98.35;98932.66;107528;277;113216;-56
2023/10/31 03:04:58;;;;;;;;;;;;;;;12.16;98.43;98916.38;107447;277;96135;-57
2023/10/31 03:07:32;;;;;;;;;;;;;;;12.14;98.43;98905.33;107520;277;97618;-52
2023/10/31 03:10:07;;;;;;;;;;;;;;;12.13;98.38;98904.20;107496;277;119982;-51
2023/10/31 03:12:41;;;;;;;;;;;;;;;12.16;98.36;98902.02;107543;277;103629;-57
2023/10/31 03:15:16;;;;;;;;;;;;;;;12.16;98.37;98901.98;107470;277;114125;-57
2023/10/31 03:17:54;;;;;;;;;;;;;;;12.20;98.49;98898.91;107486;277;97814;-51
2023/10/31 03:20:30;;;;;;;;;;;;;;;12.19;98.46;98902.59;107494;277;96448;-52
2023/10/31 03:23:07;;;;;;;;;;;;;;;12.21;98.25;98895.59;107458;277;122870;-52
2023/10/31 03:25:45;;;;;;;;;;;;;;;12.25;98.24;98894.54;107492;277;105600;-52
2023/10/31 03:28:25;;;;;;;;;;;;;;;12.28;98.06;98895.63;107456;277;114352;-57
2023/10/31 03:30:57;;;;;;;;;;;;;;;12.30;98.00;98887.73;107458;277;95798;-57
2023/10/31 03:33:39;;;;;;;;;;;;;;;12.35;98.04;98879.71;107515;277;97207;-56
2023/10/31 03:36:21;;;;;;;;;;;;;;;12.38;98.08;98879.58;107479;277;121286;-57
2023/10/31 03:38:54;;;;;;;;;;;;;;;12.40;98.00;98873.54;107501;277;105900;-56
2023/10/31 03:41:27;;;;;;;;;;;;;;;12.42;97.96;98865.46;107444;277;114153;-56
2023/10/31 03:44:03;;;;;;;;;;;;;;;12.46;97.85;98856.59;107390;273;97152;-56
2023/10/31 03:46:38;;;;;;;;;;;;;;;12.52;97.81;98852.60;107476;270;95615;-57
2023/10/31 03:49:14;;;;;;;;;;;;;;;12.53;97.77;98844.63;107498;277;121684;-52
2023/10/31 03:51:47;;;;;;;;;;;;;;;12.59;97.76;98835.95;107402;277;105169;-52
2023/10/31 03:54:22;;;;;;;;;;;;;;;12.60;97.75;98831.09;107530;277;113127;-56
2023/10/31 03:56:58;;;;;;;;;;;;;;;12.67;97.58;98813.39;107502;277;95558;-55
2023/10/31 03:59:33;;;;;;;;;;;;;;;12.74;97.28;98802.48;107496;277;97250;-51
2023/10/31 04:02:08;;;;;;;;;;;;;;;12.75;97.30;98808.80;107517;277;121697;-53
2023/10/31 04:04:49;;;;;;;;;;;;;;;12.78;97.19;98801.98;107515;277;105298;-57
2023/10/31 04:07:22;;;;;;;;;;;;;;;12.81;97.17;98798.12;107544;277;115237;-54
2023/10/31 04:09:58;;;;;;;;;;;;;;;12.82;96.97;98795.28;107465;277;96972;-54
2023/10/31 04:12:32;;;;;;;;;;;;;;;12.85;96.79;98783.23;107510;277;97152;-57
2023/10/31 04:15:08;;;;;;;;;;;;;;;12.89;96.82;98783.60;107529;277;121390;-58
2023/10/31 04:17:44;;;;;;;;;;;;;;;12.93;96.49;98788.48;107543;277;105322;-53
2023/10/31 04:20:18;;;;;;;;;;;;;;;12.95;96.55;98784.95;107494;277;114818;-53
2023/10/31 04:22:56;;;;;;;;;;;;;;;12.96;96.33;98781.83;107507;277;96590;-57
2023/10/31 04:25:33;;;;;;;;;;;;;;;13.00;96.24;98776.41;107499;277;97980;-56
2023/10/31 04:28:09;;;;;;;;;;;;;;;13.02;96.09;98760.33;107557;277;122870;-55
2023/10/31 04:30:47;;;;;;;;;;;;;;;13.02;95.98;98759.59;107568;277;105532;-55
2023/10/31 04:33:26;;;;;;;;;;;;;;;13.03;95.84;98759.15;107570;277;115092;-53
2023/10/31 04:36:03;;;;;;;;;;;;;;;13.05;95.61;98763.55;107495;277;96780;-53
2023/10/31 04:38:43;;;;;;;;;;;;;;;13.12;95.61;98761.53;107523;277;96719;-52
2023/10/31 04:41:25;;;;;;;;;;;;;;;13.13;95.34;98753.73;107461;277;120597;-53
2023/10/31 04:44:01;;;;;;;;;;;;;;;13.17;95.15;98745.83;107535;277;105273;-53
2023/10/31 04:46:36;;;;;;;;;;;;;;;13.19;95.14;98734.27;107459;277;114435;-54
2023/10/31 04:49:19;;;;;;;;;;;;;;;13.24;94.88;98727.17;107493;277;97055;-56
2023/10/31 04:52:00;;;;;;;;;;;;;;;13.28;94.61;98727.63;107451;277;98778;-56
2023/10/31 04:54:35;;;;;;;;;;;;;;;13.30;94.54;98716.92;107585;277;121659;-56
2023/10/31 04:57:11;;;;;;;;;;;;;;;13.35;94.01;98712.92;107551;277;105983;-56
2023/10/31 04:59:46;;;;;;;;;;;;;;;13.38;93.85;98706.14;107501;277;114533;-54
2023/10/31 05:02:23;;;;;;;;;;;;;;;13.41;93.72;98701.73;107549;277;96732;-55
2023/10/31 05:05:02;;;;;;;;;;;;;;;13.42;93.58;98693.63;107532;277;97170;-56
2023/10/31 05:07:40;;;;;;;;;;;;;;;13.45;93.02;98690.45;107568;277;120347;-57
2023/10/31 05:10:25;;;;;;;;;;;;;;;13.46;93.09;98684.23;107516;277;105359;-56
2023/10/31 05:13:07;;;;;;;;;;;;;;;13.51;92.82;98672.95;107577;277;113170;-53
2023/10/31 05:15:40;;;;;;;;;;;;;;;13.50;92.82;98665.90;107545;277;93512;-53
2023/10/31 05:18:14;;;;;;;;;;;;;;;13.50;92.67;98659.38;107606;277;97999;-56
2023/10/31 05:20:51;;;;;;;;;;;;;;;13.49;92.63;98662.04;107612;277;121513;-59
2023/10/31 05:23:27;;;;;;;;;;;;;;;13.49;92.29;98662.35;107567;277;105308;-53
2023/10/31 05:26:01;;;;;;;;;;;;;;;13.50;92.33;98654.34;107618;277;115304;-53
2023/10/31 05:28:37;;;;;;;;;;;;;;;13.52;92.09;98658.61;107555;277;96323;-57
2023/10/31 05:31:18;;;;;;;;;;;;;;;13.54;92.15;98660.85;107610;277;96923;-58
2023/10/31 05:33:59;;;;;;;;;;;;;;;13.56;91.66;98661.48;107559;277;121176;-54
2023/10/31 05:36:41;;;;;;;;;;;;;;;13.58;91.75;98648.27;107568;277;105405;-54
2023/10/31 05:39:17;;;;;;;;;;;;;;;13.64;91.34;98654.15;107564;277;115504;-56
2023/10/31 05:41:55;;;;;;;;;;;;;;;13.68;91.42;98655.12;107409;277;94287;-56
2023/10/31 05:44:28;;;;;;;;;;;;;;;13.72;90.72;98656.36;107640;277;98211;-58
2023/10/31 05:47:05;;;;;;;;;;;;;;;13.72;90.65;98647.04;107545;277;121979;-58
2023/10/31 05:49:45;;;;;;;;;;;;;;;13.78;90.17;98644.02;107631;277;104757;-53
2023/10/31 05:52:21;;;;;;;;;;;;;;;13.78;90.16;98653.09;107612;277;114667;-55
2023/10/31 05:54:57;;;;;;;;;;;;;;;13.82;89.69;98654.80;107585;277;97555;-54
2023/10/31 05:57:33;;;;;;;;;;;;;;;13.85;89.73;98641.00;107557;277;96434;-55
2023/10/31 06:00:09;;;;;;;;;;;;;;;13.88;89.49;98638.77;107627;277;120704;-54
2023/10/31 06:02:42;;;;;;;;;;;;;;;13.91;89.68;98645.53;107588;277;104302;-54
2023/10/31 06:05:18;;;;;;;;;;;;;;;13.92;89.31;98648.58;107582;277;114920;-53
2023/10/31 06:07:57;;;;;;;;;;;;;;;13.96;89.26;98635.86;107608;277;96019;-57
2023/10/31 06:10:36;;;;;;;;;;;;;;;13.99;88.74;98639.65;107598;277;97113;-55
2023/10/31 06:13:10;;;;;;;;;;;;;;;14.01;88.59;98641.90;107616;277;122319;-53
2023/10/31 06:15:45;;;;;;;;;;;;;;;14.01;88.55;98642.52;107594;277;104881;-53
2023/10/31 06:18:23;;;;;;;;;;;;;;;14.01;88.33;98647.70;107593;277;114603;-52
2023/10/31 06:20:57;;;;;;;;;;;;;;;14.01;88.13;98654.16;107605;277;96530;-53
2023/10/31 06:23:33;;;;;;;;;;;;;;;13.99;88.33;98642.70;107553;277;96606;-53
2023/10/31 06:26:16;;;;;;;;;;;;;;;14.02;87.63;98644.08;107487;277;121067;-53
2023/10/31 06:28:56;;;;;;;;;;;;;;;14.08;87.70;98644.59;107481;277;104641;-54
2023/10/31 06:31:34;;;;;;;;;;;;;;;14.14;87.39;98644.60;107437;277;114203;-54
2023/10/31 06:34:12;;;;;;;;;;;;;;;14.17;88.04;98645.40;107505;277;94329;-57
2023/10/31 06:36:49;;;;;;;;;;;;;;;14.14;88.28;98643.13;107474;277;97501;-56
2023/10/31 06:39:26;;;;;;;;;;;;;;;14.10;88.31;98636.69;107486;277;121676;-57
2023/10/31 06:42:04;;;;;;;;;;;;;;;14.08;88.35;98636.17;107476;277;105342;-57
2023/10/31 06:44:36;;;;;;;;;;;;;;;14.07;88.33;98626.88;107488;277;114453;-56
2023/10/31 06:47:11;;;;;;;;;;;;;;;14.09;88.32;98629.50;107439;277;96761;-57
2023/10/31 06:49:45;;;;;;;;;;;;;;;14.10;88.44;98631.20;107455;277;96699;-53
2023/10/31 06:52:22;;;;;;;;;;;;;;;14.11;88.35;98628.81;107519;278;123796;-55
2023/10/31 06:55:01;;;;;;;;;;;;;;;14.15;88.27;98633.09;107482;277;105688;-58
2023/10/31 06:57:36;;;;;;;;;;;;;;;14.18;88.32;98638.30;107500;277;114560;-57
2023/10/31 07:00:11;;;;;;;;;;;;;;;14.21;88.71;98639.30;107463;277;97242;-56
2023/10/31 07:02:45;;;;;;;;;;;;;;;14.19;88.93;98634.41;107521;277;96930;-57
2023/10/31 07:05:20;;;;;;;;;;;;;;;14.19;88.93;98635.70;107543;277;122119;-57
2023/10/31 07:07:53;;;;;;;;;;;;;;;14.23;88.79;98638.02;107514;277;105372;-57
2023/10/31 07:10:33;;;;;;;;;;;;;;;14.26;88.91;98636.08;107433;277;113634;-58
2023/10/31 07:13:06;;;;;;;;;;;;;;;14.24;89.00;98633.09;107540;277;97243;-55
2023/10/31 07:15:44;;;;;;;;;;;;;;;14.26;89.14;98640.77;107505;277;96373;-57
2023/10/31 07:18:16;;;;;;;;;;;;;;;14.29;88.83;98630.68;107475;277;121469;-57
2023/10/31 07:20:52;;;;;;;;;;;;;;;14.28;88.64;98622.42;107548;277;104812;-57
2023/10/31 07:23:30;;;;;;;;;;;;;;;14.30;88.77;98628.52;107541;277;114177;-56
2023/10/31 07:26:08;;;;;;;;;;;;;;;14.30;88.35;98624.84;107472;277;94721;-65
2023/10/31 07:28:43;;;;;;;;;;;;;;;14.32;88.26;98622.11;107532;277;97414;-54
2023/10/31 07:31:19;;;;;;;;;;;;;;;14.35;88.15;98605.40;107457;277;121769;-54
2023/10/31 07:33:56;;;;;;;;;;;;;;;14.37;88.15;98602.83;107472;277;103921;-52
2023/10/31 07:36:34;;;;;;;;;;;;;;;14.40;87.69;98599.81;107544;277;114042;-53
2023/10/31 07:39:16;;;;;;;;;;;;;;;14.46;87.09;98594.80;107481;277;93366;-57
2023/10/31 07:41:53;;;;;;;;;;;;;;;14.49;87.34;98598.64;107477;277;97463;-54
2023/10/31 07:44:32;;;;;;;;;;;;;;;14.46;87.37;98589.38;107518;277;122277;-53
2023/10/31 07:47:08;;;;;;;;;;;;;;;14.43;87.27;98596.51;107537;277;105284;-53
2023/10/31 07:49:45;;;;;;;;;;;;;;;14.39;87.23;98594.64;107519;277;112670;-54
2023/10/31 07:52:22;;;;;;;;;;;;;;;14.35;86.90;98605.73;107530;277;93627;-55
2023/10/31 07:54:57;;;;;;;;;;;;;;;14.33;86.81;98604.27;107534;277;96423;-57
2023/10/31 07:57:37;;;;;;;;;;;;;;;14.32;86.86;98610.41;107551;277;120621;-58
2023/10/31 08:00:21;;;;;;;;;;;;;;;14.31;87.09;98601.25;107494;277;105988;-54
2023/10/31 08:02:57;;;;;;;;;;;;;;;14.31;87.31;98589.00;107481;277;114220;-57
2023/10/31 08:05:33;;;;;;;;;;;;;;;14.32;87.38;98575.48;107503;277;95996;-58
2023/10/31 08:08:09;;;;;;;;;;;;;;;14.35;87.59;98562.11;107537;277;98209;-55
2023/10/31 08:10:44;;;;;;;;;;;;;;;14.41;87.79;98577.00;107512;277;122317;-54
2023/10/31 08:13:26;;;;;;;;;;;;;;;14.45;87.76;98571.23;107530;277;104165;-58
2023/10/31 08:16:09;;;;;;;;;;;;;;;14.51;87.34;98569.85;107447;277;113432;-58
2023/10/31 08:18:43;;;;;;;;;;;;;;;14.55;87.33;98574.08;107562;277;95025;-54
2023/10/31 08:21:28;;;;;;;;;;;;;;;14.57;87.23;98579.10;107574;277;96080;-53
2023/10/31 08:24:06;;;;;;;;;;;;;;;14.60;86.87;98578.41;107526;277;120452;-54
2023/10/31 08:26:44;;;;;;;;;;;;;;;14.63;86.97;98578.66;107604;277;104505;-54
2023/10/31 08:29:30;;;;;;;;;;;;;;;14.63;86.95;98575.01;107559;277;113300;-53
2023/10/31 08:32:17;;;;;;;;;;;;;;;14.65;86.98;98571.70;107392;277;95115;-56
2023/10/31 08:34:57;;;;;;;;;;;;;;;14.70;86.62;98560.45;107491;277;96447;-53
2023/10/31 08:37:33;;;;;;;;;;;;;;;14.77;86.16;98552.77;107516;277;121956;-54
2023/10/31 08:40:10;;;;;;;;;;;;;;;14.86;85.95;98550.71;107551;277;104398;-54
2023/10/31 08:42:47;;;;;;;;;;;;;;;14.95;85.71;98546.70;107538;277;114279;-58
2023/10/31 08:45:22;;;;;;;;;;;;;;;15.03;85.31;98545.55;107517;277;93611;-59
2023/10/31 08:48:01;;;;;;;;;;;;;;;15.10;85.52;98546.40;107531;277;98030;-53
2023/10/31 08:50:41;;;;;;;;;;;;;;;15.18;85.23;98553.57;107573;277;121543;-54
2023/10/31 08:53:19;;;;;;;;;;;;;;;15.25;84.58;98556.44;107626;277;105506;-57
2023/10/31 08:55:56;;;;;;;;;;;;;;;15.32;84.23;98553.96;107509;277;114744;-58
2023/10/31 08:58:31;;;;;;;;;;;;;;;15.38;83.98;98558.30;107563;277;96429;-59
2023/10/31 09:01:05;;;;;;;;;;;;;;;15.43;83.70;98538.41;107562;277;97325;-58
2023/10/31 09:03:40;;;;;;;;;;;;;;;15.46;83.41;98546.21;107567;277;121700;-54
2023/10/31 09:06:14;;;;;;;;;;;;;;;15.49;83.43;98541.13;107457;277;107190;-54
2023/10/31 09:08:49;;;;;;;;;;;;;;;15.52;83.15;98542.88;107541;277;112869;-55
2023/10/31 09:11:24;;;;;;;;;;;;;;;15.57;83.06;98538.48;107580;277;92599;-56
2023/10/31 09:14:06;;;;;;;;;;;;;;;15.58;82.57;98539.58;107517;277;97955;-55
2023/10/31 09:16:38;;;;;;;;;;;;;;;15.58;82.02;98538.38;107534;277;120689;-53
2023/10/31 09:19:12;;;;;;;;;;;;;;;15.60;81.56;98537.30;107608;277;106174;-56
2023/10/31 09:21:47;;;;;;;;;;;;;;;15.62;81.89;98539.50;107477;277;114591;-54
2023/10/31 09:24:26;;;;;;;;;;;;;;;15.64;81.68;98553.65;107463;277;96234;-55
2023/10/31 09:26:58;;;;;;;;;;;;;;;15.65;81.60;98541.89;107547;277;96723;-55
2023/10/31 09:29:36;;;;;;;;;;;;;;;15.64;81.01;98542.55;107589;277;120293;-58
2023/10/31 09:32:11;;;;;;;;;;;;;;;15.64;81.18;98563.39;107578;277;105796;-56
2023/10/31 09:34:51;;;;;;;;;;;;;;;15.64;80.62;98561.77;107570;277;115333;-57
2023/10/31 09:37:28;;;;;;;;;;;;;;;15.65;80.80;98581.04;107563;277;94377;-57
2023/10/31 09:40:06;;;;;;;;;;;;;;;15.64;80.59;98572.59;107562;277;96871;-57
2023/10/31 09:42:40;;;;;;;;;;;;;;;15.60;80.80;98578.23;107575;277;120519;-56
2023/10/31 09:45:18;;;;;;;;;;;;;;;15.57;81.02;98584.32;107558;277;105150;-56
2023/10/31 09:47:55;;;;;;;;;;;;;;;15.56;80.60;98579.46;107603;277;114998;-55
2023/10/31 09:50:34;;;;;;;;;;;;;;;15.58;81.06;98582.80;107540;277;97320;-54
2023/10/31 09:53:17;;;;;;;;;;;;;;;15.64;81.16;98582.23;107643;277;96400;-58
2023/10/31 09:55:53;;;;;;;;;;;;;;;15.69;81.09;98576.54;107569;277;120223;-60
2023/10/31 09:58:31;;;;;;;;;;;;;;;15.76;81.04;98574.33;107614;277;104290;-58
2023/10/31 10:01:04;;;;;;;;;;;;;;;15.86;81.17;98571.84;107612;277;114452;-57
2023/10/31 10:03:45;;;;;;;;;;;;;;;15.93;80.53;98565.61;107604;277;93317;-53
2023/10/31 10:06:21;;;;;;;;;;;;;;;15.99;80.24;98564.58;107618;277;96398;-53
2023/10/31 10:08:58;;;;;;;;;;;;;;;16.02;80.11;98569.05;107585;277;121335;-57
2023/10/31 10:11:37;;;;;;;;;;;;;;;16.03;79.90;98570.27;107620;277;106043;-58
2023/10/31 10:14:17;;;;;;;;;;;;;;;16.03;79.59;98566.45;107445;277;115108;-57
2023/10/31 10:16:50;;;;;;;;;;;;;;;16.06;79.70;98569.77;107592;277;96470;-57
2023/10/31 10:19:28;;;;;;;;;;;;;;;16.10;79.44;98568.48;107597;277;96829;-55
2023/10/31 10:22:05;;;;;;;;;;;;;;;16.21;79.79;98566.10;107624;277;120535;-56
2023/10/31 10:24:44;;;;;;;;;;;;;;;16.37;79.66;98564.59;107613;277;103975;-58
2023/10/31 10:27:24;;;;;;;;;;;;;;;16.54;79.75;98562.39;107458;277;114583;-56
2023/10/31 10:29:57;;;;;;;;;;;;;;;16.70;78.72;98566.27;107487;277;93552;-54
2023/10/31 10:32:33;;;;;;;;;;;;;;;16.81;78.82;98576.36;107506;277;97870;-56
2023/10/31 10:35:08;;;;;;;;;;;;;;;16.88;78.66;98580.12;107472;277;122660;-58
2023/10/31 10:37:41;;;;;;;;;;;;;;;16.93;78.24;98575.36;107524;277;104661;-58
2023/10/31 10:40:21;;;;;;;;;;;;;;;16.92;77.69;98580.42;107455;277;115124;-57
2023/10/31 10:43:00;;;;;;;;;;;;;;;16.86;78.04;98580.38;107512;277;92581;-55
2023/10/31 10:45:39;;;;;;;;;;;;;;;16.83;78.04;98578.05;107433;277;96555;-54
2023/10/31 10:48:13;;;;;;;;;;;;;;;16.83;78.39;98573.02;107519;277;120749;-55
2023/10/31 10:50:55;;;;;;;;;;;;;;;16.77;78.42;98568.67;106999;277;755352;-54
2023/10/31 10:53:39;;;;;;;;;;;;;;;16.70;78.25;98566.77;107518;277;114973;-54
2023/10/31 10:56:22;;;;;;;;;;;;;;;16.68;78.38;98573.20;107467;277;96669;-54
2023/10/31 10:59:02;;;;;;;;;;;;;;;16.70;77.97;98572.27;107528;277;97562;-58
2023/10/31 11:01:44;;;;;;;;;;;;;;;16.78;78.03;98573.25;107440;277;121683;-57
2023/10/31 11:04:22;;;;;;;;;;;;;;;16.88;78.04;98570.56;107532;277;105586;-58
2023/10/31 11:06:57;;;;;;;;;;;;;;;16.96;77.95;98578.58;107436;277;114879;-58
2023/10/31 11:09:31;;;;;;;;;;;;;;;17.05;77.96;98577.41;107500;277;93832;-53
2023/10/31 11:12:13;;;;;;;;;;;;;;;17.10;77.83;98579.59;107547;277;96699;-55
2023/10/31 11:14:50;;;;;;;;;;;;;;;17.13;77.97;98581.71;107483;277;121031;-57
2023/10/31 11:17:29;;;;;;;;;;;;;;;17.14;77.58;98584.48;107509;277;104321;-56
2023/10/31 11:20:04;;;;;;;;;;;;;;;17.10;77.44;98586.40;107472;277;113880;-56
2023/10/31 11:22:49;;;;;;;;;;;;;;;17.05;77.43;98593.17;107450;277;95194;-55
2023/10/31 11:25:23;;;;;;;;;;;;;;;17.02;77.50;98600.83;107490;277;96277;-56
2023/10/31 11:28:00;;;;;;;;;;;;;;;17.00;77.59;98603.27;107479;277;121905;-56
2023/10/31 11:30:39;;;;;;;;;;;;;;;16.97;77.59;98597.78;107462;277;104851;-57
2023/10/31 11:33:14;;;;;;;;;;;;;;;16.95;77.85;98599.64;107486;277;112961;-58
2023/10/31 11:35:50;;;;;;;;;;;;;;;16.94;77.37;98595.32;107490;277;94364;-58
2023/10/31 11:38:36;;;;;;;;;;;;;;;16.96;77.70;98608.37;107495;277;96747;-54
2023/10/31 11:41:16;;;;;;;;;;;;;;;16.93;77.51;98611.64;107446;277;121223;-54
2023/10/31 11:44:03;;;;;;;;;;;;;;;16.90;77.96;98610.82;107519;277;104617;-55
2023/10/31 11:46:40;;;;;;;;;;;;;;;16.85;78.16;98601.06;107499;277;113910;-56
2023/10/31 11:49:41;;;;;;;;;;;;;;;16.82;78.37;98610.55;107472;277;96431;-55
2023/10/31 11:52:20;;;;;;;;;;;;;;;16.83;78.64;98613.39;107498;277;98245;-54
2023/10/31 11:54:59;;;;;;;;;;;;;;;16.86;79.13;98609.57;107531;277;121096;-58
2023/10/31 11:57:40;;;;;;;;;;;;;;;16.87;79.37;98611.21;107533;277;105144;-58
2023/10/31 12:00:24;;;;;;;;;;;;;;;16.87;79.48;98616.55;107514;277;114523;-58
2023/10/31 12:03:08;;;;;;;;;;;;;;;16.90;79.79;98627.95;107517;277;96593;-53
2023/10/31 12:05:58;;;;;;;;;;;;;;;16.91;79.90;98631.88;107480;277;96570;-54
2023/10/31 12:08:35;;;;;;;;;;;;;;;16.96;80.12;98634.39;107543;277;121763;-59
2023/10/31 12:11:19;;;;;;;;;;;;;;;17.01;80.25;98634.23;107525;277;104128;-58
2023/10/31 12:14:01;;;;;;;;;;;;;;;17.10;80.24;98635.26;107562;277;112389;-58
2023/10/31 12:16:38;;;;;;;;;;;;;;;17.11;80.15;98632.95;107478;277;93615;-58
2023/10/31 12:19:17;;;;;;;;;;;;;;;17.04;79.90;98634.98;107532;277;96896;-54
2023/10/31 12:21:56;;;;;;;;;;;;;;;16.95;79.91;98637.77;107517;277;121245;-54
2023/10/31 12:24:33;;;;;;;;;;;;;;;16.91;80.21;98638.15;107497;277;105283;-58
2023/10/31 12:27:10;;;;;;;;;;;;;;;16.91;80.16;98640.29;107484;277;113648;-58
2023/10/31 12:29:44;;;;;;;;;;;;;;;16.90;80.28;98639.52;107515;277;95125;-55
2023/10/31 12:32:20;;;;;;;;;;;;;;;16.92;80.25;98640.17;107553;277;95858;-56
2023/10/31 12:34:56;;;;;;;;;;;;;;;16.89;80.24;98648.40;107558;277;120650;-53
2023/10/31 12:37:36;;;;;;;;;;;;;;;16.83;80.34;98653.70;107507;277;106073;-55
2023/10/31 12:40:11;;;;;;;;;;;;;;;16.79;80.28;98655.34;107457;277;114499;-54
2023/10/31 12:42:51;;;;;;;;;;;;;;;16.74;80.42;98654.30;107577;277;94657;-57
2023/10/31 12:45:28;;;;;;;;;;;;;;;16.69;80.55;98665.31;107526;277;98230;-58
2023/10/31 12:48:08;;;;;;;;;;;;;;;16.64;80.65;98667.86;107558;277;122670;-54
2023/10/31 12:50:44;;;;;;;;;;;;;;;16.56;80.81;98665.34;107556;277;104009;-55
2023/10/31 12:53:26;;;;;;;;;;;;;;;16.47;80.69;98662.58;107586;277;113399;-54
2023/10/31 12:56:02;;;;;;;;;;;;;;;16.40;80.91;98666.75;107530;277;96319;-55
2023/10/31 12:58:40;;;;;;;;;;;;;;;16.40;81.13;98676.51;107574;277;98161;-58
2023/10/31 13:01:19;;;;;;;;;;;;;;;16.42;81.25;98688.45;107520;277;120803;-57
2023/10/31 13:03:54;;;;;;;;;;;;;;;16.46;81.13;98698.70;107538;277;105903;-57
2023/10/31 13:06:28;;;;;;;;;;;;;;;16.43;81.27;98709.61;107490;277;114865;-57
2023/10/31 13:09:11;;;;;;;;;;;;;;;16.40;81.11;98715.21;107570;277;92914;-58
2023/10/31 13:11:50;;;;;;;;;;;;;;;16.38;81.06;98719.79;107534;277;97216;-58
2023/10/31 13:14:25;;;;;;;;;;;;;;;16.35;81.28;98725.64;107599;277;121856;-55
2023/10/31 13:16:59;;;;;;;;;;;;;;;16.33;81.24;98731.59;107564;277;105744;-54
2023/10/31 13:19:37;;;;;;;;;;;;;;;16.32;81.26;98732.35;107519;277;114375;-59
2023/10/31 13:22:17;;;;;;;;;;;;;;;16.31;81.48;98731.42;107550;277;94953;-53
2023/10/31 13:24:52;;;;;;;;;;;;;;;16.30;81.47;98733.48;107561;277;97736;-54
2023/10/31 13:27:24;;;;;;;;;;;;;;;16.31;81.57;98737.31;107594;277;122071;-58
2023/10/31 13:30:01;;;;;;;;;;;;;;;16.31;81.74;98733.44;107570;277;104380;-60
2023/10/31 13:32:40;;;;;;;;;;;;;;;16.32;81.79;98743.20;107557;277;115268;-55